Time;durP1;ratioP1;P1;durP2;ratioP2;P2;SDS_P1;SDS_P2;PMS_P1;PMS_P2;Temp;Humidity;BMP_temperature;BMP_pressure;BME280_temperature;BME280_humidity;BME280_pressure;Samples;Min_cycle;Max_cycle;Signal;HPM_P1;HPM_P2
2022/06/15 00:00:45;;;;;;;3.50;2.10;;;12.10;98.70;;;;;;5044552;28;20237;-80
2022/06/15 00:03:14;;;;;;;3.17;1.80;;;12.10;98.80;;;;;;5043245;28;20541;-79
2022/06/15 00:05:43;;;;;;;2.20;1.60;;;12.10;99.00;;;;;;5034154;28;20227;-78
2022/06/15 00:08:11;;;;;;;2.97;1.80;;;12.00;99.00;;;;;;5026091;28;20232;-79
2022/06/15 00:10:39;;;;;;;3.87;1.77;;;12.00;98.90;;;;;;5036380;28;20698;-79
2022/06/15 00:13:06;;;;;;;2.37;1.80;;;12.00;99.00;;;;;;5037947;28;20233;-79
2022/06/15 00:15:33;;;;;;;2.43;1.67;;;11.90;99.00;;;;;;5028657;28;20246;-79
2022/06/15 00:18:00;;;;;;;3.53;1.63;;;11.90;99.10;;;;;;5040276;28;20248;-78
2022/06/15 00:20:27;;;;;;;2.70;1.50;;;11.80;99.20;;;;;;5035645;28;20305;-78
2022/06/15 00:22:55;;;;;;;3.23;1.70;;;11.80;99.20;;;;;;5038378;28;20453;-78
2022/06/15 00:25:22;;;;;;;3.30;1.80;;;11.80;99.30;;;;;;5041556;28;20228;-78
2022/06/15 00:27:49;;;;;;;2.33;1.67;;;11.70;99.30;;;;;;5042775;28;20235;-78
2022/06/15 00:30:19;;;;;;;3.03;1.60;;;11.70;99.40;;;;;;5053695;28;20790;-78
2022/06/15 00:32:45;;;;;;;3.73;2.00;;;11.70;99.60;;;;;;5039530;28;20284;-78
2022/06/15 00:35:12;;;;;;;3.20;1.60;;;11.70;99.60;;;;;;5042342;28;20246;-78
2022/06/15 00:37:39;;;;;;;2.37;1.43;;;11.70;99.70;;;;;;5042469;28;20230;-78
2022/06/15 00:40:09;;;;;;;2.47;1.50;;;11.70;99.80;;;;;;5033315;28;20231;-78
2022/06/15 00:42:36;;;;;;;3.43;1.40;;;11.70;99.90;;;;;;5042084;28;20305;-82
2022/06/15 00:45:03;;;;;;;3.17;1.57;;;11.70;99.90;;;;;;5034694;28;20843;-81
2022/06/15 00:47:33;;;;;;;2.33;1.63;;;11.70;99.90;;;;;;5040873;28;20220;-81
2022/06/15 00:50:03;;;;;;;3.37;1.73;;;11.70;99.90;;;;;;5037577;28;20789;-81
2022/06/15 00:52:38;;;;;;;3.47;2.00;;;11.70;99.90;;;;;;5038163;28;20227;-82
2022/06/15 00:55:12;;;;;;;4.40;1.70;;;11.70;99.90;;;;;;5025453;28;20226;-80
2022/06/15 00:57:40;;;;;;;3.93;1.77;;;11.80;99.90;;;;;;5044224;28;20697;-78
2022/06/15 01:00:11;;;;;;;3.50;1.70;;;11.80;99.90;;;;;;5040330;28;20224;-79
2022/06/15 01:02:39;;;;;;;3.63;1.70;;;11.90;99.90;;;;;;5032213;28;20263;-78
2022/06/15 01:05:08;;;;;;;2.03;1.50;;;11.90;99.90;;;;;;5043465;28;20227;-78
2022/06/15 01:07:58;;;;;;;4.90;1.90;;;11.90;99.90;;;;;;5043923;28;20224;-78
2022/06/15 01:10:38;;;;;;;3.30;1.60;;;12.00;99.90;;;;;;5034263;28;20228;-80
2022/06/15 01:13:17;;;;;;;2.43;1.50;;;12.00;99.90;;;;;;5045616;28;20570;-79
2022/06/15 01:15:49;;;;;;;2.80;1.73;;;12.00;99.90;;;;;;5039962;28;20289;-79
2022/06/15 01:18:24;;;;;;;2.57;1.70;;;11.90;99.90;;;;;;5038520;28;21052;-79
2022/06/15 01:20:59;;;;;;;3.03;1.60;;;11.90;99.90;;;;;;5034060;28;20314;-79
2022/06/15 01:23:51;;;;;;;2.90;1.60;;;11.90;99.90;;;;;;5036778;28;20279;-79
2022/06/15 01:26:42;;;;;;;2.77;1.90;;;11.80;99.90;;;;;;5032305;28;20263;-79
2022/06/15 01:29:20;;;;;;;4.20;2.17;;;11.80;99.90;;;;;;5045519;28;20238;-79
2022/06/15 01:31:56;;;;;;;6.17;2.20;;;11.80;99.90;;;;;;5060533;28;20229;-79
2022/06/15 01:34:28;;;;;;;2.73;1.53;;;11.80;99.90;;;;;;5034731;28;20219;-79
2022/06/15 01:37:01;;;;;;;2.83;2.03;;;11.80;99.90;;;;;;5046817;28;20238;-79
2022/06/15 01:39:35;;;;;;;5.43;1.93;;;11.90;99.90;;;;;;5056787;28;20810;-80
2022/06/15 01:42:08;;;;;;;5.60;2.10;;;11.90;99.90;;;;;;5038478;28;20263;-79
2022/06/15 01:44:39;;;;;;;2.83;1.70;;;11.90;99.90;;;;;;5052977;28;20311;-78
2022/06/15 01:47:10;;;;;;;1.87;1.67;;;11.90;99.90;;;;;;5042789;28;20267;-79
2022/06/15 01:49:41;;;;;;;3.67;1.70;;;12.00;99.90;;;;;;5067402;28;20232;-79
2022/06/15 01:52:10;;;;;;;2.60;1.37;;;12.00;99.90;;;;;;5041672;28;20759;-79
2022/06/15 01:54:45;;;;;;;2.93;1.97;;;12.00;99.90;;;;;;5046903;28;20250;-79
2022/06/15 01:57:13;;;;;;;3.27;1.80;;;12.10;99.90;;;;;;5056645;28;20216;-79
2022/06/15 01:59:45;;;;;;;2.90;1.73;;;12.10;99.90;;;;;;5052125;28;20253;-79
2022/06/15 02:02:20;;;;;;;4.57;1.80;;;12.10;99.90;;;;;;5063102;28;20322;-78
2022/06/15 02:04:58;;;;;;;3.00;1.73;;;12.20;99.90;;;;;;5059876;28;20233;-78
2022/06/15 02:07:31;;;;;;;3.20;1.60;;;12.20;99.90;;;;;;5036843;28;20658;-78
2022/06/15 02:10:03;;;;;;;3.43;1.67;;;12.20;99.90;;;;;;5034272;28;20229;-79
2022/06/15 02:12:34;;;;;;;4.17;1.77;;;12.20;99.90;;;;;;5047195;28;20317;-79
2022/06/15 02:15:05;;;;;;;2.27;1.50;;;12.30;99.90;;;;;;5038397;28;20216;-78
2022/06/15 02:17:36;;;;;;;3.63;1.70;;;12.30;99.90;;;;;;5036707;28;20741;-80
2022/06/15 02:20:07;;;;;;;4.47;1.50;;;12.30;99.90;;;;;;5043930;28;20251;-79
2022/06/15 02:22:39;;;;;;;4.30;1.77;;;12.30;99.90;;;;;;5040451;28;20262;-78
2022/06/15 02:25:11;;;;;;;3.97;1.60;;;12.30;99.90;;;;;;5047570;28;20227;-79
2022/06/15 02:27:40;;;;;;;4.03;1.70;;;12.30;99.90;;;;;;5049146;28;20223;-78
2022/06/15 02:30:11;;;;;;;3.50;1.60;;;12.30;99.90;;;;;;5042818;28;20312;-79
2022/06/15 02:32:42;;;;;;;1.87;1.50;;;12.30;99.90;;;;;;5049043;28;20775;-78
2022/06/15 02:35:10;;;;;;;1.87;1.60;;;12.30;99.90;;;;;;5046231;28;20355;-78
2022/06/15 02:37:37;;;;;;;2.13;1.73;;;12.30;99.90;;;;;;5042477;28;20229;-78
2022/06/15 02:40:05;;;;;;;2.93;1.70;;;12.30;99.90;;;;;;5042278;28;20993;-78
2022/06/15 02:42:40;;;;;;;3.03;1.63;;;12.30;99.90;;;;;;5061941;28;20744;-77
2022/06/15 02:45:14;;;;;;;3.90;1.70;;;12.40;99.90;;;;;;5044147;28;20296;-78
2022/06/15 02:47:43;;;;;;;3.23;1.70;;;12.40;99.90;;;;;;5042440;28;20323;-78
2022/06/15 02:50:13;;;;;;;2.70;1.60;;;12.40;99.90;;;;;;5040640;28;20234;-77
2022/06/15 02:52:47;;;;;;;3.67;1.47;;;12.40;99.90;;;;;;5060054;28;20273;-79
2022/06/15 02:55:17;;;;;;;4.03;2.13;;;12.40;99.90;;;;;;5047498;28;20248;-78
2022/06/15 02:57:48;;;;;;;3.13;1.67;;;12.40;99.90;;;;;;5044609;28;20248;-78
2022/06/15 03:00:19;;;;;;;2.47;1.50;;;12.40;99.90;;;;;;5058929;28;20239;-79
2022/06/15 03:02:48;;;;;;;2.47;1.80;;;12.40;99.90;;;;;;5042561;28;20329;-78
2022/06/15 03:05:15;;;;;;;2.23;1.80;;;12.40;99.90;;;;;;5037003;28;20226;-79
2022/06/15 03:07:42;;;;;;;2.80;1.60;;;12.40;99.90;;;;;;5045233;28;20230;-78
2022/06/15 03:10:11;;;;;;;2.47;1.60;;;12.40;99.90;;;;;;5037459;28;20222;-79
2022/06/15 03:12:39;;;;;;;4.97;2.00;;;12.40;99.90;;;;;;5038239;28;20322;-78
2022/06/15 03:15:10;;;;;;;3.43;2.00;;;12.30;99.90;;;;;;5044647;28;20221;-78
2022/06/15 03:17:37;;;;;;;4.00;2.40;;;12.30;99.90;;;;;;5038891;28;20318;-79
2022/06/15 03:20:10;;;;;;;4.10;2.10;;;12.30;99.90;;;;;;5058901;28;20221;-78
2022/06/15 03:22:38;;;;;;;3.70;2.00;;;12.30;99.90;;;;;;5043945;28;20226;-79
2022/06/15 03:25:15;;;;;;;2.80;2.00;;;12.30;99.90;;;;;;5041587;28;20233;-79
2022/06/15 03:27:42;;;;;;;3.87;1.80;;;12.30;99.90;;;;;;5043935;28;20221;-79
2022/06/15 03:30:13;;;;;;;3.83;2.07;;;12.30;99.90;;;;;;5046071;28;20648;-79
2022/06/15 03:32:53;;;;;;;1.83;1.67;;;12.30;99.90;;;;;;5049507;28;20219;-80
2022/06/15 03:35:34;;;;;;;4.37;1.73;;;12.30;99.90;;;;;;5052809;28;20312;-79
2022/06/15 03:38:08;;;;;;;3.97;2.30;;;12.30;99.90;;;;;;5042632;28;20760;-78
2022/06/15 03:40:42;;;;;;;4.23;2.00;;;12.30;99.90;;;;;;5048625;28;20659;-79
2022/06/15 03:43:09;;;;;;;4.33;2.67;;;12.30;99.90;;;;;;5046384;28;20227;-79
2022/06/15 03:45:37;;;;;;;5.43;2.30;;;12.30;99.90;;;;;;5044784;28;20336;-79
2022/06/15 03:48:06;;;;;;;6.33;2.50;;;12.30;99.90;;;;;;5044997;28;20220;-78
2022/06/15 03:50:37;;;;;;;3.87;2.40;;;12.30;99.90;;;;;;5059899;28;20292;-81
2022/06/15 03:53:06;;;;;;;5.70;2.33;;;12.30;99.90;;;;;;5048207;28;20606;-78
2022/06/15 03:55:38;;;;;;;6.20;2.37;;;12.40;99.90;;;;;;5046077;28;20303;-78
2022/06/15 03:58:13;;;;;;;4.63;2.13;;;12.40;99.90;;;;;;5035437;28;20228;-78
2022/06/15 04:00:41;;;;;;;4.30;2.10;;;12.40;99.90;;;;;;5044356;28;20566;-78
2022/06/15 04:03:12;;;;;;;4.13;2.37;;;12.50;99.90;;;;;;5046299;28;20229;-79
2022/06/15 04:05:57;;;;;;;5.97;2.67;;;12.50;99.90;;;;;;5041938;28;20642;-79
2022/06/15 04:08:39;;;;;;;4.87;2.30;;;12.60;99.90;;;;;;5045122;28;20292;-79
2022/06/15 04:11:58;;;;;;;5.10;2.47;;;12.60;99.90;;;;;;5040108;28;20235;-79
2022/06/15 04:14:11;;;;;;;4.20;2.40;;;12.70;99.90;;;;;;5039073;28;20217;-78
2022/06/15 04:16:40;;;;;;;4.00;2.47;;;12.80;99.90;;;;;;5038393;28;20252;-78
2022/06/15 04:19:11;;;;;;;5.77;2.50;;;12.80;99.90;;;;;;5041457;28;20240;-78
2022/06/15 04:21:42;;;;;;;4.70;2.30;;;12.90;99.90;;;;;;5065123;28;20303;-79
2022/06/15 04:24:11;;;;;;;5.77;2.53;;;12.90;99.90;;;;;;5041951;28;20231;-78
2022/06/15 04:26:41;;;;;;;3.60;2.23;;;13.00;99.90;;;;;;5041976;28;20306;-77
2022/06/15 04:29:09;;;;;;;4.23;2.10;;;13.00;99.90;;;;;;5045993;28;20751;-78
2022/06/15 04:31:38;;;;;;;6.73;2.60;;;13.00;99.90;;;;;;5043536;28;20344;-79
2022/06/15 04:34:05;;;;;;;4.27;2.40;;;13.10;99.90;;;;;;5042815;28;20230;-77
2022/06/15 04:36:32;;;;;;;4.30;2.20;;;13.10;99.90;;;;;;5033421;28;20233;-78
2022/06/15 04:39:10;;;;;;;3.97;2.33;;;13.20;99.90;;;;;;5027178;28;20226;-78
2022/06/15 04:41:41;;;;;;;3.60;2.10;;;13.30;99.90;;;;;;5043282;28;20224;-78
2022/06/15 04:44:11;;;;;;;5.80;2.80;;;13.30;99.90;;;;;;5041017;28;20231;-78
2022/06/15 04:46:40;;;;;;;5.60;2.30;;;13.40;99.90;;;;;;5040010;28;20253;-78
2022/06/15 04:49:09;;;;;;;5.77;2.80;;;13.50;99.90;;;;;;5057602;28;21591;-79
2022/06/15 04:51:46;;;;;;;5.87;2.60;;;13.50;99.90;;;;;;5043069;28;20297;-79
2022/06/15 04:54:14;;;;;;;4.13;2.23;;;13.60;99.90;;;;;;5052466;28;20310;-79
2022/06/15 04:56:46;;;;;;;6.30;2.30;;;13.70;99.90;;;;;;5042188;28;20227;-78
2022/06/15 04:59:15;;;;;;;5.63;2.40;;;13.80;99.90;;;;;;5045805;28;20238;-78
2022/06/15 05:01:43;;;;;;;4.17;2.03;;;13.90;99.90;;;;;;5038276;28;20234;-79
2022/06/15 05:04:10;;;;;;;4.90;2.13;;;14.00;99.90;;;;;;5043142;28;20226;-79
2022/06/15 05:06:40;;;;;;;5.37;2.10;;;14.10;99.90;;;;;;5044694;28;20227;-79
2022/06/15 05:09:12;;;;;;;3.10;2.07;;;14.10;99.90;;;;;;5045612;28;20226;-79
2022/06/15 05:11:41;;;;;;;6.00;2.63;;;14.30;99.90;;;;;;5047010;28;20350;-79
2022/06/15 05:14:08;;;;;;;4.33;2.00;;;14.40;99.90;;;;;;5050543;28;20237;-79
2022/06/15 05:16:41;;;;;;;5.33;2.30;;;14.50;99.90;;;;;;5046932;28;20228;-80
2022/06/15 05:19:13;;;;;;;4.20;2.23;;;14.60;99.90;;;;;;5047338;28;20672;-79
2022/06/15 05:21:41;;;;;;;5.47;2.30;;;14.70;99.90;;;;;;5063593;28;20296;-79
2022/06/15 05:24:10;;;;;;;7.83;2.47;;;14.80;99.90;;;;;;5041198;28;20250;-80
2022/06/15 05:26:58;;;;;;;4.30;2.27;;;14.90;99.90;;;;;;5041704;28;20840;-80
2022/06/15 05:29:25;;;;;;;4.07;2.47;;;15.00;99.90;;;;;;5043246;28;20227;-79
2022/06/15 05:31:57;;;;;;;5.63;2.70;;;15.10;99.90;;;;;;5043521;28;20576;-79
2022/06/15 05:34:25;;;;;;;5.27;2.47;;;15.20;99.70;;;;;;5046269;28;20274;-79
2022/06/15 05:36:52;;;;;;;4.13;2.13;;;15.40;99.60;;;;;;5047205;28;20238;-79
2022/06/15 05:39:19;;;;;;;6.17;2.43;;;15.50;99.30;;;;;;5046876;28;20235;-78
2022/06/15 05:41:49;;;;;;;5.20;2.27;;;15.60;99.10;;;;;;5043462;28;20294;-78
2022/06/15 05:44:21;;;;;;;5.50;2.37;;;15.70;99.00;;;;;;5045174;28;20234;-78
2022/06/15 05:46:54;;;;;;;3.57;2.23;;;15.70;99.20;;;;;;5045675;28;20220;-78
2022/06/15 05:49:30;;;;;;;4.40;2.23;;;15.80;98.80;;;;;;5046458;28;20228;-78
2022/06/15 05:51:57;;;;;;;5.97;2.60;;;16.00;98.90;;;;;;5050945;28;20216;-78
2022/06/15 05:54:26;;;;;;;3.23;2.30;;;16.10;98.80;;;;;;5048416;28;20721;-78
2022/06/15 05:56:53;;;;;;;4.47;2.50;;;16.20;98.60;;;;;;5045302;28;20224;-79
2022/06/15 05:59:21;;;;;;;4.73;2.30;;;16.30;98.30;;;;;;5043800;28;20607;-79
2022/06/15 06:01:48;;;;;;;6.37;2.70;;;16.40;98.20;;;;;;5045206;28;20231;-79
2022/06/15 06:04:17;;;;;;;5.53;2.23;;;16.60;98.20;;;;;;5048423;28;20228;-79
2022/06/15 06:06:44;;;;;;;7.20;2.30;;;16.70;97.90;;;;;;5047171;28;20224;-78
2022/06/15 06:09:11;;;;;;;5.63;1.93;;;16.80;97.80;;;;;;5052569;28;20530;-78
2022/06/15 06:11:38;;;;;;;3.17;1.70;;;17.00;97.60;;;;;;5057210;28;20224;-78
2022/06/15 06:14:05;;;;;;;3.17;1.50;;;17.10;97.30;;;;;;5048906;28;20219;-79
2022/06/15 06:16:33;;;;;;;3.92;1.67;;;17.30;97.00;;;;;;5046650;28;20242;-80
2022/06/15 06:19:00;;;;;;;4.57;1.80;;;17.50;96.80;;;;;;5041014;28;20829;-79
2022/06/15 06:21:26;;;;;;;3.17;1.80;;;17.70;96.70;;;;;;5045191;28;20223;-79
2022/06/15 06:23:55;;;;;;;5.38;2.05;;;17.90;96.30;;;;;;5042294;28;20311;-79
2022/06/15 06:26:25;;;;;;;4.22;1.80;;;18.00;96.00;;;;;;5039434;28;20240;-78
2022/06/15 06:28:52;;;;;;;4.07;1.95;;;18.10;95.70;;;;;;5047002;28;20239;-78
2022/06/15 06:31:20;;;;;;;5.13;2.00;;;18.30;95.60;;;;;;5047851;28;20208;-80
2022/06/15 06:33:49;;;;;;;12.27;2.15;;;18.40;95.30;;;;;;5048739;28;20350;-79
2022/06/15 06:36:19;;;;;;;4.25;2.03;;;18.50;95.10;;;;;;5048120;28;20587;-78
2022/06/15 06:38:46;;;;;;;4.82;1.80;;;18.60;95.10;;;;;;5050792;28;20228;-78
2022/06/15 06:41:17;;;;;;;4.13;1.80;;;18.70;94.90;;;;;;5050443;28;20661;-79
2022/06/15 06:43:44;;;;;;;2.50;1.75;;;18.70;94.70;;;;;;5041886;28;20251;-78
2022/06/15 06:46:10;;;;;;;4.07;1.60;;;18.90;94.50;;;;;;5051595;28;20231;-79
2022/06/15 06:48:37;;;;;;;6.05;1.60;;;19.00;94.30;;;;;;5051531;28;20238;-79
2022/06/15 06:51:05;;;;;;;5.95;1.90;;;19.10;93.90;;;;;;5049111;28;20295;-77
2022/06/15 06:53:35;;;;;;;4.40;1.58;;;19.20;93.40;;;;;;5052970;28;20231;-80
2022/06/15 06:56:02;;;;;;;2.20;1.50;;;19.30;93.10;;;;;;5041073;28;20839;-79
2022/06/15 06:58:29;;;;;;;3.78;1.73;;;19.40;93.00;;;;;;5065228;28;20228;-79
2022/06/15 07:00:56;;;;;;;4.00;1.88;;;19.50;92.70;;;;;;5041238;28;20225;-79
2022/06/15 07:03:29;;;;;;;6.03;1.80;;;19.60;92.10;;;;;;5047644;28;20231;-79
2022/06/15 07:06:02;;;;;;;3.90;2.10;;;19.70;91.80;;;;;;5049290;28;20227;-80
2022/06/15 07:08:37;;;;;;;3.15;1.90;;;19.90;91.90;;;;;;5059529;28;20238;-79
2022/06/15 07:11:08;;;;;;;2.60;1.70;;;20.20;92.70;;;;;;5050024;28;20224;-79
2022/06/15 07:13:35;;;;;;;3.40;1.60;;;20.70;91.90;;;;;;5042486;28;20216;-80
2022/06/15 07:16:04;;;;;;;3.97;1.80;;;21.30;92.00;;;;;;5053921;28;20230;-80
2022/06/15 07:18:31;;;;;;;3.28;1.60;;;22.10;90.90;;;;;;5043167;28;20811;-80
2022/06/15 07:21:06;;;;;;;3.83;1.75;;;22.80;90.40;;;;;;5047617;28;20220;-80
2022/06/15 07:23:34;;;;;;;2.92;1.38;;;23.40;88.60;;;;;;5047702;28;20235;-80
2022/06/15 07:26:03;;;;;;;6.47;1.58;;;23.80;85.00;;;;;;5050074;28;20771;-80
2022/06/15 07:28:30;;;;;;;4.20;1.40;;;24.10;82.90;;;;;;5045273;28;20235;-80
2022/06/15 07:30:57;;;;;;;3.42;1.70;;;24.30;82.70;;;;;;5051350;28;20303;-80
2022/06/15 07:33:24;;;;;;;2.47;1.17;;;24.60;82.20;;;;;;5043363;28;20231;-80
2022/06/15 07:35:51;;;;;;;2.25;1.20;;;24.80;79.10;;;;;;5055154;28;20231;-79
2022/06/15 07:38:21;;;;;;;2.22;1.35;;;25.00;79.80;;;;;;5048448;28;20270;-80
2022/06/15 07:40:50;;;;;;;3.50;1.48;;;25.10;78.60;;;;;;5065662;28;20232;-80
2022/06/15 07:43:17;;;;;;;3.88;1.40;;;25.40;77.60;;;;;;5042701;28;20224;-81
2022/06/15 07:45:44;;;;;;;7.88;1.60;;;25.60;77.40;;;;;;5050569;28;20844;-80
2022/06/15 07:50:56;;;;;;;2.65;1.08;;;26.30;75.60;;;;;;5056870;28;20330;-81
2022/06/15 07:53:23;;;;;;;3.17;1.10;;;26.70;74.50;;;;;;5055279;28;21640;-80
2022/06/15 07:55:52;;;;;;;2.00;1.00;;;27.10;72.60;;;;;;5047583;28;20225;-81
2022/06/15 07:58:19;;;;;;;3.45;1.25;;;27.50;71.30;;;;;;5044674;28;20236;-80
2022/06/15 08:00:48;;;;;;;2.22;1.00;;;28.00;70.40;;;;;;5059605;28;20224;-80
2022/06/15 08:03:17;;;;;;;1.85;0.90;;;28.40;68.00;;;;;;5056337;28;20222;-81
2022/06/15 08:05:51;;;;;;;3.50;1.30;;;28.90;67.00;;;;;;5051434;28;20559;-81
2022/06/15 08:08:21;;;;;;;1.80;1.25;;;29.10;65.60;;;;;;5053718;28;20403;-81
2022/06/15 08:10:53;;;;;;;1.15;1.00;;;29.40;64.00;;;;;;5056415;28;20307;-81
2022/06/15 08:13:20;;;;;;;4.47;1.30;;;29.60;63.00;;;;;;5039659;28;20573;-80
2022/06/15 08:15:50;;;;;;;3.47;1.10;;;29.70;61.60;;;;;;5047965;28;20248;-80
2022/06/15 08:18:20;;;;;;;3.00;1.10;;;29.70;60.90;;;;;;5043982;28;20246;-82
2022/06/15 08:20:51;;;;;;;2.45;0.90;;;29.80;59.50;;;;;;5047408;28;20337;-80
2022/06/15 08:23:21;;;;;;;1.90;1.20;;;29.90;59.40;;;;;;5049874;28;20235;-80
2022/06/15 08:25:51;;;;;;;2.63;1.20;;;29.90;58.60;;;;;;5056774;28;20633;-81
2022/06/15 08:28:22;;;;;;;3.45;0.88;;;29.90;58.00;;;;;;5048696;28;20235;-79
2022/06/15 08:30:50;;;;;;;1.88;0.90;;;30.00;58.00;;;;;;5040846;28;20244;-80
2022/06/15 08:33:19;;;;;;;2.08;0.90;;;30.20;58.60;;;;;;5037583;28;20319;-80
2022/06/15 08:35:47;;;;;;;3.20;1.00;;;30.40;58.40;;;;;;5050396;28;20228;-80
2022/06/15 08:38:16;;;;;;;3.35;1.02;;;30.60;57.10;;;;;;5047468;28;20267;-80
2022/06/15 08:40:49;;;;;;;4.10;1.20;;;30.70;54.40;;;;;;5057043;28;21016;-80
2022/06/15 08:43:26;;;;;;;2.30;1.00;;;30.70;52.70;;;;;;5038332;28;20860;-80
2022/06/15 08:46:01;;;;;;;1.50;0.80;;;30.70;53.30;;;;;;5048651;28;20335;-80
2022/06/15 08:48:44;;;;;;;1.73;0.93;;;30.70;51.30;;;;;;5045967;28;20589;-81
2022/06/15 08:51:16;;;;;;;1.98;1.17;;;30.70;51.60;;;;;;5056566;28;20918;-81
2022/06/15 08:53:51;;;;;;;1.38;1.05;;;30.80;50.60;;;;;;5044168;28;20295;-81
2022/06/15 08:56:24;;;;;;;2.30;1.17;;;30.90;51.90;;;;;;5041215;28;20227;-80
2022/06/15 08:59:00;;;;;;;2.92;1.00;;;31.10;51.10;;;;;;5042639;28;20231;-80
2022/06/15 09:01:35;;;;;;;1.70;0.98;;;31.30;51.10;;;;;;5044819;28;20234;-81
2022/06/15 09:04:10;;;;;;;2.17;0.95;;;31.60;50.50;;;;;;5045132;28;20227;-80
2022/06/15 09:06:47;;;;;;;2.33;0.90;;;31.90;50.70;;;;;;5044860;28;20246;-80
2022/06/15 09:09:26;;;;;;;2.92;1.30;;;31.90;49.20;;;;;;5038742;28;20224;-80
2022/06/15 09:15:09;;;;;;;2.80;1.10;;;31.40;49.60;;;;;;5044905;28;20262;-80
2022/06/15 09:17:38;;;;;;;2.35;1.02;;;30.90;50.30;;;;;;5041448;28;20235;-80
2022/06/15 09:20:08;;;;;;;2.90;1.17;;;30.50;50.10;;;;;;5046917;28;20305;-80
2022/06/15 09:22:39;;;;;;;2.40;0.98;;;30.20;49.90;;;;;;5042056;28;20256;-80
2022/06/15 09:25:12;;;;;;;3.72;0.88;;;30.00;50.10;;;;;;5046449;28;20339;-80
2022/06/15 09:27:42;;;;;;;4.88;1.52;;;30.00;50.30;;;;;;5043726;28;20231;-80
2022/06/15 09:30:15;;;;;;;3.25;1.10;;;30.10;50.00;;;;;;5058600;28;20238;-80
2022/06/15 09:32:45;;;;;;;2.22;1.25;;;30.30;50.60;;;;;;5044526;28;20244;-80
2022/06/15 09:35:17;;;;;;;3.22;1.40;;;30.60;50.70;;;;;;5042873;28;20228;-80
2022/06/15 09:37:50;;;;;;;2.03;0.90;;;30.80;49.90;;;;;;5039060;28;20232;-80
2022/06/15 09:40:17;;;;;;;1.98;1.10;;;30.90;48.90;;;;;;5041118;28;20347;-80
2022/06/15 09:42:54;;;;;;;2.03;0.90;;;30.90;48.60;;;;;;5061347;28;20223;-80
2022/06/15 09:45:29;;;;;;;2.35;1.20;;;30.60;47.60;;;;;;5041869;28;20258;-80
2022/06/15 09:48:06;;;;;;;2.97;1.10;;;30.20;47.60;;;;;;5044342;28;20257;-80
2022/06/15 09:50:49;;;;;;;2.03;1.20;;;29.70;47.60;;;;;;5043212;28;20747;-80
2022/06/15 09:53:29;;;;;;;2.88;1.23;;;29.10;48.30;;;;;;5043724;28;20223;-80
2022/06/15 09:56:00;;;;;;;3.42;1.42;;;28.60;48.50;;;;;;5044789;28;20220;-80
2022/06/15 09:58:34;;;;;;;1.63;0.93;;;28.20;49.50;;;;;;5044647;28;20232;-80
2022/06/15 10:01:02;;;;;;;1.45;1.17;;;27.80;49.40;;;;;;5047877;28;20311;-80
2022/06/15 10:03:31;;;;;;;2.60;1.23;;;27.70;49.60;;;;;;5053894;28;20716;-80
2022/06/15 10:06:02;;;;;;;3.42;1.38;;;27.50;49.70;;;;;;5048080;28;20701;-81
2022/06/15 10:08:29;;;;;;;3.60;1.27;;;27.40;50.00;;;;;;5044254;28;20269;-80
2022/06/15 10:10:58;;;;;;;2.83;1.02;;;27.30;50.20;;;;;;5048583;28;20228;-80
2022/06/15 10:13:30;;;;;;;3.08;1.20;;;27.40;51.30;;;;;;5041915;28;20251;-80
2022/06/15 10:16:03;;;;;;;2.88;1.00;;;27.80;51.20;;;;;;5046103;28;21035;-80
2022/06/15 10:18:36;;;;;;;2.20;0.93;;;28.20;51.20;;;;;;5044993;28;20596;-80
2022/06/15 10:21:09;;;;;;;1.85;1.10;;;28.70;50.10;;;;;;5050037;28;20216;-80
2022/06/15 10:23:49;;;;;;;2.10;0.93;;;29.20;50.20;;;;;;5051398;28;20319;-80
2022/06/15 10:26:26;;;;;;;3.33;1.00;;;29.50;49.80;;;;;;5045570;28;20949;-80
2022/06/15 10:28:53;;;;;;;2.90;1.00;;;29.90;48.80;;;;;;5039528;28;20255;-80
2022/06/15 10:31:28;;;;;;;2.08;1.13;;;30.10;48.60;;;;;;5040519;28;20697;-80
2022/06/15 10:33:57;;;;;;;1.63;0.98;;;30.00;47.70;;;;;;5046710;28;20230;-80
2022/06/15 10:36:29;;;;;;;4.38;1.50;;;29.90;47.60;;;;;;5040316;28;20231;-80
2022/06/15 10:39:02;;;;;;;2.08;0.90;;;29.60;47.10;;;;;;5051230;28;20306;-80
2022/06/15 10:41:46;;;;;;;2.97;1.42;;;29.30;47.50;;;;;;5050338;28;20227;-80
2022/06/15 10:44:15;;;;;;;3.35;0.82;;;28.90;48.00;;;;;;5042919;28;20255;-80
2022/06/15 10:47:07;;;;;;;3.17;1.50;;;28.60;48.80;;;;;;5046149;28;20579;-80
2022/06/15 10:49:41;;;;;;;2.00;1.15;;;28.30;48.70;;;;;;5044708;28;20231;-80
2022/06/15 10:52:19;;;;;;;2.92;1.05;;;28.20;48.90;;;;;;5050902;28;20249;-80
2022/06/15 11:03:17;;;;;;;1.92;1.23;;;27.70;50.00;;;;;;5050712;28;20213;-80
2022/06/15 11:05:46;;;;;;;2.38;1.17;;;27.60;50.00;;;;;;5054466;28;20220;-80
2022/06/15 11:08:17;;;;;;;3.88;1.55;;;27.60;50.00;;;;;;5047188;28;20313;-80
2022/06/15 11:10:48;;;;;;;9.48;1.85;;;27.50;50.30;;;;;;5052119;28;20692;-80
2022/06/15 11:13:30;;;;;;;6.43;2.05;;;27.50;50.20;;;;;;5044929;28;20239;-80
2022/06/15 11:18:46;;;;;;;18.40;2.50;;;27.80;51.40;;;;;;5062380;28;20731;-80
2022/06/15 11:21:16;;;;;;;7.47;1.92;;;28.20;51.20;;;;;;5045450;28;20311;-80
2022/06/15 11:23:50;;;;;;;3.90;1.50;;;28.70;50.80;;;;;;5040313;28;20386;-81
2022/06/15 11:29:21;;;;;;;1.90;1.20;;;29.60;47.90;;;;;;5047673;28;20262;-80
2022/06/15 11:31:49;;;;;;;4.63;1.60;;;30.10;48.10;;;;;;5062729;28;20228;-81
2022/06/15 11:34:20;;;;;;;2.55;1.08;;;30.40;47.60;;;;;;5048225;28;20216;-81
2022/06/15 11:36:53;;;;;;;3.35;1.63;;;30.60;47.70;;;;;;5051622;28;20812;-81
2022/06/15 11:39:23;;;;;;;2.63;1.40;;;30.80;45.40;;;;;;5052049;28;20689;-80
2022/06/15 11:41:53;;;;;;;3.08;1.48;;;30.90;45.40;;;;;;5055457;28;20306;-80
2022/06/15 11:44:28;;;;;;;2.53;1.52;;;30.90;46.00;;;;;;5062921;28;20224;-80
2022/06/15 11:47:08;;;;;;;2.25;1.27;;;31.00;45.10;;;;;;5049213;28;20224;-80
2022/06/15 11:49:42;;;;;;;3.97;1.50;;;31.10;45.50;;;;;;5046657;28;20227;-80
2022/06/15 11:52:21;;;;;;;2.95;1.30;;;31.20;45.10;;;;;;5048000;28;20273;-80
2022/06/15 11:55:03;;;;;;;3.30;1.40;;;31.20;44.90;;;;;;5051586;28;20310;-80
2022/06/15 11:57:41;;;;;;;3.33;1.15;;;31.20;44.80;;;;;;5043517;28;20303;-80
2022/06/15 12:00:20;;;;;;;2.35;1.15;;;31.20;44.70;;;;;;5060407;28;20227;-80
2022/06/15 12:03:04;;;;;;;3.78;1.42;;;31.00;44.80;;;;;;5054354;28;20227;-80
2022/06/15 12:05:43;;;;;;;2.70;1.15;;;30.80;44.50;;;;;;5046350;28;20235;-80
2022/06/15 12:08:21;;;;;;;2.13;1.13;;;30.80;44.80;;;;;;5050824;28;20234;-81
2022/06/15 12:10:52;;;;;;;2.08;1.05;;;30.70;44.70;;;;;;5068578;28;20228;-80
2022/06/15 12:13:28;;;;;;;2.05;1.30;;;30.70;44.80;;;;;;5053130;28;20327;-81
2022/06/15 12:16:04;;;;;;;2.63;1.35;;;30.60;44.70;;;;;;5052385;28;20242;-80
2022/06/15 12:18:48;;;;;;;2.90;1.60;;;30.50;44.60;;;;;;5062571;28;20226;-80
2022/06/15 12:21:23;;;;;;;3.15;1.70;;;30.50;44.90;;;;;;5043317;28;20219;-81
2022/06/15 12:23:59;;;;;;;3.45;1.63;;;30.50;44.60;;;;;;5050017;28;20296;-81
2022/06/15 12:26:37;;;;;;;5.05;1.60;;;30.60;44.60;;;;;;5052320;28;20337;-80
2022/06/15 12:29:11;;;;;;;1.80;1.45;;;30.80;44.70;;;;;;5046744;28;20244;-81
2022/06/15 12:31:56;;;;;;;2.72;1.38;;;31.00;44.70;;;;;;5035127;28;20235;-81
2022/06/15 12:34:31;;;;;;;2.63;1.58;;;31.20;43.90;;;;;;5043574;28;20224;-81
2022/06/15 12:37:09;;;;;;;1.98;1.48;;;31.40;44.30;;;;;;5048047;28;20233;-81
2022/06/15 12:39:51;;;;;;;4.97;1.70;;;31.50;44.50;;;;;;5043994;28;20372;-81
2022/06/15 12:42:18;;;;;;;3.63;1.48;;;31.60;43.20;;;;;;5042972;28;20224;-81
2022/06/15 12:44:52;;;;;;;3.33;1.60;;;31.70;43.20;;;;;;5044863;28;20228;-81
2022/06/15 12:47:22;;;;;;;2.28;1.77;;;31.70;43.30;;;;;;5065174;28;20642;-81
2022/06/15 12:50:16;;;;;;;2.45;1.70;;;31.70;42.80;;;;;;5044220;28;20278;-81
2022/06/15 12:52:50;;;;;;;2.97;1.50;;;31.60;42.00;;;;;;5042527;28;20235;-81
2022/06/15 12:55:29;;;;;;;1.67;1.20;;;31.70;42.60;;;;;;5047927;28;20425;-81
2022/06/15 12:58:04;;;;;;;2.67;1.60;;;31.70;43.10;;;;;;5045182;28;20712;-80
2022/06/15 13:00:35;;;;;;;2.70;1.38;;;31.80;42.40;;;;;;5044614;28;20227;-81
2022/06/15 13:03:14;;;;;;;2.97;1.40;;;32.00;42.60;;;;;;5041781;28;20227;-81
2022/06/15 13:05:40;;;;;;;4.53;1.63;;;32.10;42.30;;;;;;5048795;28;20228;-81
2022/06/15 13:08:24;;;;;;;2.92;1.73;;;32.20;42.40;;;;;;5034077;28;20315;-80
2022/06/15 13:11:10;;;;;;;1.67;1.40;;;32.20;41.10;;;;;;5048850;28;20223;-83
2022/06/15 13:13:40;;;;;;;4.60;1.65;;;32.10;41.60;;;;;;5053809;28;20220;-80
2022/06/15 13:16:10;;;;;;;2.83;1.25;;;32.10;41.50;;;;;;5043800;28;20242;-80
2022/06/15 13:18:42;;;;;;;4.10;1.20;;;32.10;41.40;;;;;;5060480;28;20305;-80
2022/06/15 13:21:10;;;;;;;1.95;1.05;;;32.10;41.80;;;;;;5052096;28;20220;-80
2022/06/15 13:23:59;;;;;;;3.95;1.40;;;32.00;42.00;;;;;;5053188;28;20224;-80
2022/06/15 13:26:47;;;;;;;2.83;1.33;;;31.80;41.90;;;;;;5053959;28;20235;-80
2022/06/15 13:29:29;;;;;;;2.97;1.55;;;31.80;41.70;;;;;;5054116;28;20224;-80
2022/06/15 13:31:58;;;;;;;3.08;1.77;;;31.60;41.60;;;;;;5048633;28;20229;-80